createdAt,value
2022-07-26T00:01:37.840Z,11.88
2022-07-26T00:04:08.530Z,13.23
2022-07-26T00:06:39.163Z,12.52
2022-07-26T00:09:09.776Z,12.50
2022-07-26T00:11:43.010Z,12.57
2022-07-26T00:14:13.532Z,11.15
2022-07-26T00:16:44.041Z,13.00
2022-07-26T00:19:14.549Z,12.20
2022-07-26T00:21:44.879Z,14.50
2022-07-26T00:24:15.174Z,14.00
2022-07-26T00:26:48.153Z,13.00
2022-07-26T00:29:18.523Z,13.63
2022-07-26T00:31:48.965Z,12.07
2022-07-26T00:34:19.245Z,10.90
2022-07-26T00:36:49.526Z,12.65
2022-07-26T00:39:19.866Z,13.27
2022-07-26T00:41:52.833Z,13.23
2022-07-26T00:44:23.090Z,10.18
2022-07-26T00:46:53.461Z,11.20
2022-07-26T00:49:23.819Z,15.13
2022-07-26T00:51:55.100Z,10.23
2022-07-26T00:54:25.562Z,14.90
2022-07-26T00:56:58.728Z,11.30
2022-07-26T00:59:29.028Z,10.52
2022-07-26T01:01:59.694Z,10.20
2022-07-26T01:04:30.581Z,12.02
2022-07-26T01:07:00.791Z,11.23
2022-07-26T01:09:30.992Z,10.38
2022-07-26T01:12:06.670Z,10.15
2022-07-26T01:14:36.977Z,11.68
2022-07-26T01:17:07.430Z,12.00
2022-07-26T01:19:37.862Z,12.85
2022-07-26T01:22:14.314Z,12.98
2022-07-26T01:24:45.249Z,9.30
2022-07-26T01:27:15.682Z,12.07
2022-07-26T01:29:46.123Z,10.15
2022-07-26T01:32:16.323Z,8.50
2022-07-26T01:34:47.273Z,12.52
2022-07-26T01:37:20.252Z,10.68
2022-07-26T01:39:50.508Z,10.52
2022-07-26T01:42:20.733Z,12.07
2022-07-26T01:44:51.005Z,9.57
2022-07-26T01:47:21.258Z,9.25
2022-07-26T01:49:51.732Z,10.18
2022-07-26T01:52:24.767Z,9.70
2022-07-26T01:54:55.149Z,8.75
2022-07-26T01:57:25.642Z,12.27
2022-07-26T01:59:55.891Z,13.52
2022-07-26T02:02:26.327Z,9.15
2022-07-26T02:05:02.499Z,9.48
2022-07-26T02:07:44.659Z,8.48
2022-07-26T02:10:16.557Z,11.43
2022-07-26T02:12:47.734Z,11.10
2022-07-26T02:15:18.708Z,10.63
2022-07-26T02:17:48.906Z,10.45
2022-07-26T02:20:19.209Z,8.85
2022-07-26T02:22:52.107Z,9.27
2022-07-26T02:25:22.489Z,12.02
2022-07-26T02:27:52.686Z,11.35
2022-07-26T02:30:23.180Z,8.68
2022-07-26T02:32:53.452Z,10.23
2022-07-26T02:35:23.987Z,10.07
2022-07-26T02:37:56.857Z,9.13
2022-07-26T02:40:27.351Z,11.98
2022-07-26T02:42:57.508Z,13.93
2022-07-26T02:45:28.086Z,10.18
2022-07-26T02:47:59.249Z,8.85
2022-07-26T02:50:31.722Z,11.60
2022-07-26T02:53:04.660Z,13.60
2022-07-26T02:55:35.148Z,14.02
2022-07-26T02:58:05.529Z,11.32
2022-07-26T03:00:36.106Z,11.02
2022-07-26T03:03:06.448Z,12.20
2022-07-26T03:05:36.717Z,10.98
2022-07-26T03:08:10.508Z,11.77
2022-07-26T03:10:41.767Z,11.23
2022-07-26T03:13:12.392Z,9.98
2022-07-26T03:15:42.939Z,9.65
2022-07-26T03:18:13.243Z,12.20
2022-07-26T03:20:45.116Z,7.78
2022-07-26T03:23:18.050Z,10.25
2022-07-26T03:25:48.333Z,13.95
2022-07-26T03:28:19.663Z,12.43
2022-07-26T03:30:50.091Z,14.13
2022-07-26T03:33:20.416Z,12.15
2022-07-26T03:35:50.715Z,10.27
2022-07-26T03:38:23.725Z,13.23
2022-07-26T03:40:54.331Z,13.35
2022-07-26T03:43:24.711Z,11.48
2022-07-26T03:45:55.720Z,11.90
2022-07-26T03:48:26.128Z,12.10
2022-07-26T03:50:56.570Z,14.43
2022-07-26T03:53:29.519Z,15.23
2022-07-26T03:56:12.373Z,14.77
2022-07-26T03:58:43.857Z,15.32
2022-07-26T04:01:14.257Z,11.98
2022-07-26T04:03:47.766Z,13.52
2022-07-26T04:06:18.885Z,16.60
2022-07-26T04:08:56.242Z,14.70
2022-07-26T04:11:28.707Z,16.77
2022-07-26T04:13:59.448Z,15.07
2022-07-26T04:16:30.298Z,14.57
2022-07-26T04:19:01.015Z,14.73
2022-07-26T04:21:31.456Z,16.30
2022-07-26T04:24:04.835Z,12.60
2022-07-26T04:26:35.516Z,14.70
2022-07-26T04:29:06.107Z,13.85
2022-07-26T04:31:37.877Z,12.40
2022-07-26T04:34:08.553Z,12.55
2022-07-26T04:36:39.115Z,11.70
2022-07-26T04:39:11.860Z,13.60
2022-07-26T04:41:42.209Z,12.25
2022-07-26T04:44:12.514Z,13.38
2022-07-26T04:46:44.987Z,11.02
2022-07-26T04:49:16.620Z,10.60
2022-07-26T04:51:46.936Z,10.73
2022-07-26T04:54:23.009Z,11.73
2022-07-26T04:56:53.643Z,9.02
2022-07-26T04:59:23.975Z,13.50
2022-07-26T05:01:54.258Z,10.10
2022-07-26T05:04:24.613Z,10.27
2022-07-26T05:06:54.849Z,10.80
2022-07-26T05:09:27.806Z,11.80
2022-07-26T05:11:58.192Z,12.07
2022-07-26T05:14:28.563Z,9.98
2022-07-26T05:16:59.013Z,9.13
2022-07-26T05:19:39.264Z,14.07
2022-07-26T05:22:09.570Z,13.02
2022-07-26T05:24:42.427Z,9.05
2022-07-26T05:27:12.684Z,9.07
2022-07-26T05:29:43.028Z,7.78
2022-07-26T05:32:16.213Z,8.60
2022-07-26T05:34:46.536Z,8.90
2022-07-26T05:37:18.336Z,9.20
2022-07-26T05:39:51.171Z,9.65
2022-07-26T05:42:21.538Z,10.13
2022-07-26T05:44:51.823Z,9.13
2022-07-26T05:47:22.466Z,9.18
2022-07-26T05:49:53.400Z,13.63
2022-07-26T05:52:24.685Z,11.10
2022-07-26T05:54:57.853Z,14.75
2022-07-26T05:57:28.794Z,10.63
2022-07-26T05:59:59.350Z,9.45
2022-07-26T06:02:30.095Z,12.02
2022-07-26T06:05:00.712Z,9.75
2022-07-26T06:07:31.215Z,12.23
2022-07-26T06:10:04.291Z,11.38
2022-07-26T06:12:34.793Z,11.85
2022-07-26T06:15:05.436Z,12.75
2022-07-26T06:17:46.777Z,10.55
2022-07-26T06:20:17.351Z,10.45
2022-07-26T06:22:47.875Z,12.45
2022-07-26T06:25:21.326Z,11.98
2022-07-26T06:27:51.813Z,11.98
2022-07-26T06:30:22.674Z,11.65
2022-07-26T06:32:53.171Z,9.05
2022-07-26T06:35:24.389Z,11.80
2022-07-26T06:37:55.080Z,13.18
2022-07-26T06:40:28.354Z,13.88
2022-07-26T06:43:04.087Z,11.95
2022-07-26T06:45:35.500Z,7.97
2022-07-26T06:48:06.763Z,8.43
2022-07-26T06:50:37.202Z,8.65
2022-07-26T06:53:07.656Z,9.65
2022-07-26T06:55:40.542Z,10.02
2022-07-26T06:58:13.003Z,9.38
2022-07-26T07:00:44.257Z,9.77
2022-07-26T07:03:15.064Z,9.50
2022-07-26T07:05:50.022Z,9.73
2022-07-26T07:08:23.410Z,11.45
2022-07-26T07:10:56.935Z,10.57
2022-07-26T07:13:27.347Z,11.25
2022-07-26T07:15:58.010Z,6.43
2022-07-26T07:18:28.350Z,10.55
2022-07-26T07:20:58.695Z,8.65
2022-07-26T07:23:29.083Z,14.20
2022-07-26T07:26:02.205Z,5.75
2022-07-26T07:28:34.273Z,8.70
2022-07-26T07:31:04.851Z,11.15
2022-07-26T07:33:43.607Z,17.98
2022-07-26T07:36:23.406Z,10.27
2022-07-26T07:38:53.726Z,5.95
2022-07-26T07:41:26.525Z,8.90
2022-07-26T07:43:56.740Z,7.75
2022-07-26T07:46:27.066Z,7.05
2022-07-26T07:48:59.682Z,7.80
2022-07-26T07:51:30.922Z,8.50
2022-07-26T07:54:05.186Z,6.78
2022-07-26T07:56:38.751Z,6.38
2022-07-26T07:59:10.147Z,7.53
2022-07-26T08:01:41.098Z,9.45
2022-07-26T08:04:11.940Z,10.00
2022-07-26T08:06:42.099Z,6.22
2022-07-26T08:09:20.982Z,8.63
2022-07-26T08:11:54.129Z,5.57
2022-07-26T08:14:24.444Z,5.47
2022-07-26T08:16:54.680Z,6.10
2022-07-26T08:19:41.465Z,9.63
2022-07-26T08:22:13.305Z,6.03
2022-07-26T08:24:45.815Z,7.53
2022-07-26T08:27:18.938Z,9.15
2022-07-26T08:29:49.197Z,6.90
2022-07-26T08:32:19.513Z,6.80
2022-07-26T08:34:49.889Z,7.95
2022-07-26T08:37:20.217Z,3.92
2022-07-26T08:39:51.437Z,6.32
2022-07-26T08:42:25.505Z,8.80
2022-07-26T08:44:55.766Z,8.82
2022-07-26T08:47:37.722Z,9.57
2022-07-26T08:50:12.326Z,7.40
2022-07-26T08:52:44.020Z,9.10
2022-07-26T08:55:17.603Z,6.47
2022-07-26T08:57:50.553Z,5.87
2022-07-26T09:00:25.022Z,5.72
2022-07-26T09:05:34.116Z,4.82
2022-07-26T09:08:26.015Z,6.95
2022-07-26T09:11:00.221Z,6.53
2022-07-26T09:13:54.455Z,5.65
2022-07-26T09:16:24.837Z,9.13
2022-07-26T09:18:56.154Z,8.10
2022-07-26T09:21:36.231Z,6.50
2022-07-26T09:24:07.184Z,8.90
2022-07-26T09:26:37.573Z,7.35
2022-07-26T09:29:14.052Z,10.30
2022-07-26T09:31:44.892Z,11.05
2022-07-26T09:34:15.365Z,6.68
2022-07-26T09:36:55.329Z,6.90
2022-07-26T09:39:33.470Z,8.50
2022-07-26T09:42:27.272Z,6.30
2022-07-26T09:45:01.669Z,6.13
2022-07-26T09:47:42.921Z,5.90
2022-07-26T09:50:15.942Z,5.47
2022-07-26T09:53:07.498Z,6.35
2022-07-26T09:55:44.674Z,5.32
2022-07-26T09:58:17.579Z,8.07
2022-07-26T10:00:50.974Z,7.65
2022-07-26T10:03:21.167Z,4.47
2022-07-26T10:05:51.525Z,6.35
2022-07-26T10:08:22.619Z,6.70
2022-07-26T10:10:58.751Z,6.75
2022-07-26T10:13:31.050Z,6.38
2022-07-26T10:16:05.157Z,4.72
2022-07-26T10:18:50.358Z,4.28
2022-07-26T10:21:26.778Z,4.85
2022-07-26T10:23:59.673Z,9.52
2022-07-26T10:26:45.773Z,3.58
2022-07-26T10:29:30.839Z,10.15
2022-07-26T10:32:23.018Z,1.77
2022-07-26T10:34:53.520Z,6.95
2022-07-26T10:37:32.620Z,7.80
2022-07-26T10:40:25.644Z,7.22
2022-07-26T10:42:56.001Z,3.50
2022-07-26T10:45:27.337Z,3.33
2022-07-26T10:48:17.349Z,7.35
2022-07-26T10:50:50.099Z,7.25
2022-07-26T10:53:26.289Z,5.63
2022-07-26T10:55:58.510Z,7.15
2022-07-26T10:58:30.432Z,7.97
2022-07-26T11:01:04.481Z,4.40
2022-07-26T11:03:45.140Z,4.43
2022-07-26T11:06:17.955Z,7.07
2022-07-26T11:08:51.149Z,6.03
2022-07-26T11:11:33.021Z,5.60
2022-07-26T11:14:15.650Z,6.45
2022-07-26T11:16:50.186Z,7.40
2022-07-26T11:19:26.209Z,6.90
2022-07-26T11:21:58.971Z,4.65
2022-07-26T11:24:29.968Z,6.18
2022-07-26T11:27:06.262Z,6.40
2022-07-26T11:29:40.562Z,5.63
2022-07-26T11:32:20.492Z,5.55
2022-07-26T11:35:02.001Z,4.30
2022-07-26T11:37:32.311Z,12.32
2022-07-26T11:40:02.547Z,11.23
2022-07-26T11:42:32.961Z,4.28
2022-07-26T11:45:03.416Z,5.18
2022-07-26T11:47:33.784Z,5.30
2022-07-26T11:50:18.641Z,3.72
2022-07-26T11:52:53.290Z,4.32
2022-07-26T11:55:30.639Z,6.13
2022-07-26T11:58:09.058Z,4.32
2022-07-26T12:00:40.104Z,4.47
2022-07-26T12:03:10.564Z,4.63
2022-07-26T12:05:44.569Z,3.42
2022-07-26T12:08:14.913Z,5.93
2022-07-26T12:10:45.133Z,6.40
2022-07-26T12:13:17.345Z,5.45
2022-07-26T12:15:53.161Z,9.10
2022-07-26T12:18:34.196Z,6.10
2022-07-26T12:21:11.395Z,7.53
2022-07-26T12:23:48.545Z,4.20
2022-07-26T12:26:24.713Z,5.00
2022-07-26T12:28:55.207Z,4.03
2022-07-26T12:31:30.429Z,3.65
2022-07-26T12:34:01.891Z,6.45
2022-07-26T12:36:37.362Z,8.18
2022-07-26T12:39:08.233Z,8.75
2022-07-26T12:41:41.543Z,5.05
2022-07-26T12:44:13.416Z,5.60
2022-07-26T12:46:45.021Z,4.05
2022-07-26T12:49:15.608Z,5.20
2022-07-26T12:51:48.519Z,4.82
2022-07-26T12:54:18.933Z,7.50
2022-07-26T12:56:49.149Z,6.05
2022-07-26T12:59:19.477Z,2.67
2022-07-26T13:01:50.094Z,3.67
2022-07-26T13:04:20.976Z,7.03
2022-07-26T13:06:54.181Z,3.72
2022-07-26T13:09:24.515Z,7.90
2022-07-26T13:11:54.972Z,4.63
2022-07-26T13:14:25.407Z,4.20
2022-07-26T13:16:56.245Z,4.30
2022-07-26T13:19:26.983Z,5.57
2022-07-26T13:22:00.741Z,4.03
2022-07-26T13:24:33.895Z,6.18
2022-07-26T13:27:06.508Z,5.15
2022-07-26T13:29:38.000Z,3.55
2022-07-26T13:32:09.672Z,3.25
2022-07-26T13:34:40.067Z,5.47
2022-07-26T13:37:15.304Z,4.05
2022-07-26T13:39:45.869Z,3.72
2022-07-26T13:42:17.552Z,3.40
2022-07-26T13:44:48.405Z,3.25
2022-07-26T13:47:19.385Z,4.68
2022-07-26T13:49:49.900Z,3.28
2022-07-26T13:52:23.028Z,4.40
2022-07-26T13:54:53.538Z,4.68
2022-07-26T13:57:24.332Z,3.83
2022-07-26T14:00:17.556Z,4.32
2022-07-26T14:02:48.097Z,3.60
2022-07-26T14:05:18.589Z,4.07
2022-07-26T14:07:51.956Z,5.82
2022-07-26T14:10:23.087Z,3.92
2022-07-26T14:12:54.391Z,4.60
2022-07-26T14:15:24.968Z,4.57
2022-07-26T14:17:55.485Z,7.65
2022-07-26T14:20:26.126Z,5.07
2022-07-26T14:23:00.025Z,7.18
2022-07-26T14:25:32.033Z,3.83
2022-07-26T14:28:03.552Z,5.43
2022-07-26T14:30:33.821Z,4.90
2022-07-26T14:33:05.179Z,5.78
2022-07-26T14:35:35.458Z,4.47
2022-07-26T14:38:08.427Z,8.23
2022-07-26T14:40:39.741Z,7.88
2022-07-26T14:43:10.079Z,5.60
2022-07-26T14:45:40.390Z,4.05
2022-07-26T14:48:10.687Z,5.43
2022-07-26T14:51:07.174Z,6.88
2022-07-26T14:53:33.979Z,7.38
2022-07-26T14:56:04.303Z,7.60
2022-07-26T14:58:34.640Z,9.25
2022-07-26T15:01:05.433Z,8.40
2022-07-26T15:03:37.201Z,5.70
2022-07-26T15:06:08.023Z,6.68
2022-07-26T15:08:41.038Z,6.50
2022-07-26T15:11:11.754Z,6.57
2022-07-26T15:13:42.086Z,6.20
2022-07-26T15:16:12.631Z,3.97
2022-07-26T15:18:43.040Z,7.63
2022-07-26T15:21:13.333Z,7.22
2022-07-26T15:23:46.127Z,8.43
2022-07-26T15:26:16.481Z,5.47
2022-07-26T15:28:46.946Z,4.95
2022-07-26T15:31:17.235Z,5.68
2022-07-26T15:33:47.529Z,6.63
2022-07-26T15:36:17.751Z,5.72
2022-07-26T15:38:50.797Z,5.00
2022-07-26T15:41:21.102Z,8.15
2022-07-26T15:43:51.876Z,4.82
2022-07-26T15:46:22.381Z,6.28
2022-07-26T15:48:55.235Z,4.40
2022-07-26T15:51:26.538Z,5.15
2022-07-26T15:53:59.385Z,5.63
2022-07-26T15:56:29.684Z,5.72
2022-07-26T15:59:00.507Z,3.95
2022-07-26T16:01:33.078Z,3.40
2022-07-26T16:04:05.241Z,5.47
2022-07-26T16:06:36.082Z,4.15
2022-07-26T16:09:18.680Z,4.57
2022-07-26T16:11:50.906Z,4.40
2022-07-26T16:14:21.914Z,4.57
2022-07-26T16:16:52.453Z,3.58
2022-07-26T16:19:22.990Z,5.40
2022-07-26T16:21:53.432Z,5.22
2022-07-26T16:24:26.545Z,3.92
2022-07-26T16:26:57.049Z,4.03
2022-07-26T16:29:27.479Z,3.72
2022-07-26T16:31:58.004Z,5.55
2022-07-26T16:34:30.289Z,4.47
2022-07-26T16:37:00.673Z,4.30
2022-07-26T16:39:33.970Z,3.72
2022-07-26T16:42:07.205Z,3.08
2022-07-26T16:44:39.484Z,4.13
2022-07-26T16:47:10.394Z,6.63
2022-07-26T16:49:40.699Z,3.50
2022-07-26T16:52:11.417Z,3.72
2022-07-26T16:54:45.166Z,5.32
2022-07-26T16:57:15.794Z,4.78
2022-07-26T16:59:46.422Z,4.70
2022-07-26T17:02:17.182Z,6.13
2022-07-26T17:04:47.822Z,3.20
2022-07-26T17:07:26.379Z,2.42
2022-07-26T17:10:00.061Z,3.45
2022-07-26T17:12:30.732Z,3.58
2022-07-26T17:15:02.574Z,4.35
2022-07-26T17:17:33.212Z,2.65
2022-07-26T17:20:04.069Z,5.50
2022-07-26T17:22:34.570Z,3.78
2022-07-26T17:25:09.926Z,3.90
2022-07-26T17:27:40.285Z,4.32
2022-07-26T17:30:12.802Z,3.20
2022-07-26T17:32:43.294Z,3.78
2022-07-26T17:35:13.746Z,5.82
2022-07-26T17:37:44.410Z,4.00
2022-07-26T17:40:17.813Z,2.78
2022-07-26T17:42:48.942Z,2.95
2022-07-26T17:45:19.506Z,3.80
2022-07-26T17:47:50.108Z,3.60
2022-07-26T17:50:37.710Z,4.82
2022-07-26T17:53:08.387Z,2.40
2022-07-26T17:55:41.552Z,5.15
2022-07-26T17:58:12.150Z,1.73
2022-07-26T18:00:43.090Z,1.70
2022-07-26T18:03:13.697Z,3.20
2022-07-26T18:05:44.238Z,1.85
2022-07-26T18:08:14.722Z,4.63
2022-07-26T18:10:51.268Z,4.25
2022-07-26T18:13:21.911Z,1.48
2022-07-26T18:15:52.627Z,2.28
2022-07-26T18:18:23.581Z,1.45
2022-07-26T18:20:54.066Z,2.92
2022-07-26T18:23:24.582Z,5.47
2022-07-26T18:25:58.175Z,1.05
2022-07-26T18:28:29.281Z,1.97
2022-07-26T18:30:59.798Z,1.58
2022-07-26T18:33:31.674Z,2.90
2022-07-26T18:36:02.205Z,2.67
2022-07-26T18:38:32.440Z,2.38
2022-07-26T18:41:06.137Z,2.63
2022-07-26T18:43:37.182Z,3.60
2022-07-26T18:46:07.575Z,2.97
2022-07-26T18:48:38.202Z,2.90
2022-07-26T18:51:12.181Z,3.13
2022-07-26T18:53:43.828Z,2.63
2022-07-26T18:56:16.756Z,1.40
2022-07-26T18:58:47.286Z,3.47
2022-07-26T19:01:18.656Z,4.80
2022-07-26T19:03:49.103Z,5.00
2022-07-26T19:06:19.568Z,3.33
2022-07-26T19:08:49.873Z,5.18
2022-07-26T19:11:22.832Z,1.35
2022-07-26T19:13:52.975Z,1.65
2022-07-26T19:16:23.357Z,3.83
2022-07-26T19:18:57.263Z,4.43
2022-07-26T19:21:27.936Z,3.03
2022-07-26T19:23:58.578Z,3.88
2022-07-26T19:26:32.284Z,4.38
2022-07-26T19:29:02.616Z,2.17
2022-07-26T19:31:32.962Z,3.13
2022-07-26T19:34:03.511Z,3.55
2022-07-26T19:36:34.064Z,5.78
2022-07-26T19:39:04.422Z,3.95
2022-07-26T19:41:37.635Z,4.38
2022-07-26T19:44:08.664Z,2.63
2022-07-26T19:46:40.271Z,2.28
2022-07-26T19:49:11.395Z,4.13
2022-07-26T19:51:42.576Z,4.38
2022-07-26T19:54:13.024Z,2.67
2022-07-26T19:56:45.972Z,2.70
2022-07-26T19:59:22.635Z,1.98
2022-07-26T20:01:58.315Z,4.45
2022-07-26T20:04:29.121Z,3.35
2022-07-26T20:06:59.414Z,3.78
2022-07-26T20:09:30.009Z,4.00
2022-07-26T20:12:03.600Z,3.47
2022-07-26T20:14:33.845Z,4.50
2022-07-26T20:17:04.181Z,2.90
2022-07-26T20:19:42.707Z,3.53
2022-07-26T20:22:13.396Z,2.15
2022-07-26T20:24:43.730Z,4.28
2022-07-26T20:27:16.751Z,3.72
2022-07-26T20:29:47.083Z,3.72
2022-07-26T20:32:17.554Z,7.18
2022-07-26T20:34:47.925Z,7.22
2022-07-26T20:37:18.513Z,2.85
2022-07-26T20:39:48.915Z,3.28
2022-07-26T20:42:22.124Z,5.88
2022-07-26T20:44:52.918Z,4.18
2022-07-26T20:47:23.584Z,7.93
2022-07-26T20:49:53.978Z,3.67
2022-07-26T20:52:28.916Z,3.30
2022-07-26T20:54:59.305Z,7.85
2022-07-26T20:57:32.360Z,4.03
2022-07-26T21:00:02.648Z,5.85
2022-07-26T21:02:33.014Z,4.30
2022-07-26T21:05:03.680Z,9.93
2022-07-26T21:07:58.818Z,6.78
2022-07-26T21:10:24.934Z,7.88
2022-07-26T21:13:00.485Z,7.57
2022-07-26T21:15:31.069Z,8.45
2022-07-26T21:18:01.879Z,7.25
2022-07-26T21:20:32.554Z,4.40
2022-07-26T21:23:16.053Z,5.82
2022-07-26T21:25:47.432Z,4.88
2022-07-26T21:28:20.358Z,9.18
2022-07-26T21:30:54.323Z,5.10
2022-07-26T21:33:24.790Z,4.38
2022-07-26T21:35:55.100Z,6.70
2022-07-26T21:38:25.460Z,4.20
2022-07-26T21:40:55.783Z,4.78
2022-07-26T21:43:29.053Z,7.30
2022-07-26T21:45:59.444Z,3.72
2022-07-26T21:48:30.159Z,6.90
2022-07-26T21:51:00.664Z,7.05
2022-07-26T21:53:30.983Z,5.25
2022-07-26T21:56:01.516Z,7.72
2022-07-26T21:58:36.537Z,7.00
2022-07-26T22:01:07.746Z,3.25
2022-07-26T22:03:39.803Z,7.25
2022-07-26T22:06:11.759Z,6.00
2022-07-26T22:08:42.734Z,9.13
2022-07-26T22:11:13.181Z,4.78
2022-07-26T22:13:46.162Z,6.90
2022-07-26T22:16:16.474Z,6.32
2022-07-26T22:18:46.868Z,8.95
2022-07-26T22:21:17.711Z,5.10
2022-07-26T22:23:47.991Z,5.55
2022-07-26T22:26:20.820Z,5.57
2022-07-26T22:28:53.761Z,6.35
2022-07-26T22:31:24.302Z,2.42
2022-07-26T22:33:54.609Z,5.72
2022-07-26T22:36:24.777Z,6.82
2022-07-26T22:38:55.094Z,8.32
2022-07-26T22:41:25.374Z,8.32
2022-07-26T22:43:58.241Z,5.15
2022-07-26T22:46:29.634Z,5.22
2022-07-26T22:49:00.071Z,5.38
2022-07-26T22:51:30.640Z,6.07
2022-07-26T22:54:00.935Z,4.50
2022-07-26T22:56:31.601Z,3.80
2022-07-26T22:59:04.718Z,5.22
2022-07-26T23:01:35.061Z,7.05
2022-07-26T23:04:05.402Z,6.28
2022-07-26T23:06:37.054Z,8.30
2022-07-26T23:09:09.021Z,8.32
2022-07-26T23:11:39.585Z,6.10
2022-07-26T23:14:12.480Z,9.30
2022-07-26T23:16:43.018Z,8.52
2022-07-26T23:19:13.967Z,7.35
2022-07-26T23:21:44.545Z,4.32
2022-07-26T23:24:14.853Z,3.10
2022-07-26T23:26:45.145Z,6.10
2022-07-26T23:29:18.066Z,3.33
2022-07-26T23:31:48.372Z,6.00
2022-07-26T23:34:18.776Z,7.20
2022-07-26T23:36:49.119Z,4.90
2022-07-26T23:39:19.499Z,10.57
2022-07-26T23:41:49.770Z,5.80
2022-07-26T23:44:22.586Z,8.02
2022-07-26T23:46:52.897Z,3.95
2022-07-26T23:49:23.383Z,5.95
2022-07-26T23:51:53.725Z,11.10
2022-07-26T23:54:24.293Z,7.82
2022-07-26T23:56:54.526Z,5.95
2022-07-26T23:59:27.498Z,6.05
